Time;durP1;ratioP1;P1;durP2;ratioP2;P2;SDS_P1;SDS_P2;PMS_P1;PMS_P2;Temp;Humidity;BMP_temperature;BMP_pressure;BME280_temperature;BME280_humidity;BME280_pressure;Samples;Min_cycle;Max_cycle;Signal;HPM_P1;HPM_P2
2023/12/16 00:00:44;;;;;;;13.60;13.10;;;;;;;-141.02;100.00;42571.03;5111999;28;20308;-78
2023/12/16 00:03:13;;;;;;;13.17;12.67;;;;;;;-141.02;100.00;42582.53;5111976;28;20200;-78
2023/12/16 00:05:40;;;;;;;13.60;13.00;;;;;;;-141.02;100.00;42532.63;5112406;28;20193;-77
2023/12/16 00:08:07;;;;;;;14.03;13.43;;;;;;;-141.02;100.00;42386.75;5112170;28;20194;-77
2023/12/16 00:10:34;;;;;;;13.57;12.97;;;;;;;-141.02;100.00;42279.25;5111765;28;20189;-77
2023/12/16 00:13:01;;;;;;;13.73;13.13;;;;;;;-141.02;100.00;42221.66;5112067;28;20193;-77
2023/12/16 00:15:28;;;;;;;13.30;12.70;;;;;;;-141.02;100.00;42252.38;5112234;28;20197;-77
2023/12/16 00:17:55;;;;;;;13.77;13.17;;;;;;;-141.02;100.00;42294.63;5115396;28;20239;-77
2023/12/16 00:20:24;;;;;;;14.20;13.60;;;;;;;-141.02;100.00;42206.31;5115358;28;20197;-78
2023/12/16 00:22:50;;;;;;;17.63;16.90;;;;;;;-141.02;100.00;42219.75;5115578;28;20317;-78
2023/12/16 00:25:18;;;;;;;14.60;14.00;;;;;;;-141.02;100.00;42194.81;5115272;28;20193;-78
2023/12/16 00:27:46;;;;;;;15.90;15.20;;;;;;;-141.02;100.00;42104.59;5115515;28;20654;-78
2023/12/16 00:30:13;;;;;;;14.90;14.30;;;;;;;-141.02;100.00;42160.25;5115475;28;20225;-77
2023/12/16 00:32:40;;;;;;;13.90;13.37;;;;;;;-141.02;100.00;42252.38;5115042;28;20193;-78
2023/12/16 00:35:08;;;;;;;14.30;13.70;;;;;;;-141.02;100.00;42171.78;5115437;28;20189;-78
2023/12/16 00:37:37;;;;;;;14.50;13.90;;;;;;;-141.02;100.00;42093.06;5115351;28;20201;-78
2023/12/16 00:40:05;;;;;;;14.40;13.80;;;;;;;-141.02;100.00;42102.66;5115213;28;20200;-78
2023/12/16 00:42:32;;;;;;;14.00;13.40;;;;;;;-141.02;100.00;42093.06;5114853;28;20220;-78
2023/12/16 00:44:59;;;;;;;13.57;12.97;;;;;;;-141.02;100.00;42183.28;5115100;28;20204;-78
2023/12/16 00:47:26;;;;;;;13.53;13.03;;;;;;;-141.02;100.00;42125.69;5114889;28;20193;-78
2023/12/16 00:49:53;;;;;;;13.43;12.93;;;;;;;-141.02;100.00;42189.03;5115034;28;20193;-78
2023/12/16 00:52:20;;;;;;;14.40;13.80;;;;;;;-141.02;100.00;42156.41;5115029;28;20578;-78
2023/12/16 00:54:49;;;;;;;13.90;13.40;;;;;;;-141.02;100.00;42156.41;5114773;28;20573;-78
2023/12/16 00:57:16;;;;;;;13.43;12.93;;;;;;;-141.02;100.00;42152.56;5114925;28;20232;-76
2023/12/16 00:59:45;;;;;;;13.37;12.87;;;;;;;-141.02;100.00;42394.41;5114586;28;20656;-76
2023/12/16 01:02:18;;;;;;;12.80;12.30;;;;;;;-141.02;100.00;42377.16;5114636;28;20725;-77
2023/12/16 01:04:46;;;;;;;12.40;12.00;;;;;;;-141.02;100.00;42603.66;5115004;28;20201;-78
2023/12/16 01:07:13;;;;;;;11.97;11.57;;;;;;;-141.02;100.00;42578.69;5114395;28;20576;-78
2023/12/16 01:09:40;;;;;;;13.20;12.70;;;;;;;-141.02;100.00;42302.28;5114372;28;20723;-78
2023/12/16 01:12:09;;;;;;;12.87;12.37;;;;;;;-141.02;100.00;42398.25;5114360;28;20196;-78
2023/12/16 01:14:36;;;;;;;13.17;12.77;;;;;;;-141.02;100.00;42478.88;5114259;28;20283;-77
2023/12/16 01:17:03;;;;;;;12.70;12.30;;;;;;;-141.02;100.00;42484.63;5114566;28;20272;-77
2023/12/16 01:19:30;;;;;;;13.80;13.30;;;;;;;-141.02;100.00;42296.53;5114401;28;20284;-78
2023/12/16 01:21:57;;;;;;;14.23;13.73;;;;;;;-141.02;100.00;42206.31;5113992;28;20390;-77
2023/12/16 01:24:24;;;;;;;12.80;12.30;;;;;;;-141.02;100.00;42286.94;5114252;28;20197;-77
2023/12/16 01:26:51;;;;;;;13.10;12.60;;;;;;;-141.02;100.00;42302.28;5113707;28;20678;-78
2023/12/16 01:29:19;;;;;;;13.70;13.20;;;;;;;-141.02;100.00;42093.06;5114346;28;20272;-77
2023/12/16 01:31:47;;;;;;;14.00;13.40;;;;;;;-141.02;100.00;41883.88;5113894;28;20197;-77
2023/12/16 01:34:14;;;;;;;14.10;13.50;;;;;;;-141.02;100.00;41941.44;5114155;28;20193;-77
2023/12/16 01:36:41;;;;;;;13.40;12.90;;;;;;;-141.02;100.00;42006.72;5114147;28;20189;-78
2023/12/16 01:39:08;;;;;;;14.20;13.60;;;;;;;-141.02;100.00;42006.72;5114135;28;20200;-78
2023/12/16 01:41:35;;;;;;;14.70;14.10;;;;;;;-141.02;100.00;41903.06;5113737;28;20232;-78
2023/12/16 01:44:02;;;;;;;14.50;13.90;;;;;;;-141.02;100.00;41757.22;5113656;28;20689;-78
2023/12/16 01:46:32;;;;;;;13.40;12.90;;;;;;;-141.02;100.00;41881.97;5114003;28;20249;-78
2023/12/16 01:49:00;;;;;;;13.03;12.53;;;;;;;-141.02;100.00;41511.56;5113909;28;20280;-78
2023/12/16 01:51:27;;;;;;;15.00;14.40;;;;;;;-141.02;100.00;41778.31;5113530;28;20199;-78
2023/12/16 01:53:54;;;;;;;15.77;15.07;;;;;;;-141.02;100.00;41732.25;5113789;28;20195;-78
2023/12/16 01:56:21;;;;;;;14.50;13.90;;;;;;;-141.02;100.00;41749.53;5113397;28;20316;-79
2023/12/16 01:58:50;;;;;;;15.33;14.63;;;;;;;-141.02;100.00;41649.75;5113750;28;20212;-79
2023/12/16 02:01:17;;;;;;;14.60;14.00;;;;;;;-141.02;100.00;41665.09;5113726;28;20225;-78
2023/12/16 02:03:46;;;;;;;14.17;13.67;;;;;;;-141.02;100.00;41791.75;5113284;28;20194;-79
2023/12/16 02:06:13;;;;;;;13.77;13.27;;;;;;;-141.02;100.00;41837.81;5113478;28;20276;-78
2023/12/16 02:08:40;;;;;;;13.30;12.90;;;;;;;-141.02;100.00;41951.06;5113249;28;20193;-79
2023/12/16 02:11:10;;;;;;;14.43;13.93;;;;;;;-141.02;100.00;41776.41;5113465;28;20196;-79
2023/12/16 02:13:37;;;;;;;14.90;14.40;;;;;;;-141.02;100.00;42047.00;5113379;28;20195;-79
2023/12/16 02:16:05;;;;;;;14.33;13.83;;;;;;;-141.02;100.00;41983.69;5113339;28;20193;-79
2023/12/16 02:18:31;;;;;;;14.57;14.07;;;;;;;-141.02;100.00;41839.72;5112976;28;20574;-79
2023/12/16 02:21:00;;;;;;;14.40;13.90;;;;;;;-141.02;100.00;41657.41;5113298;28;20197;-79
2023/12/16 02:23:28;;;;;;;13.60;13.20;;;;;;;-141.02;100.00;41703.47;5112966;28;20298;-80
2023/12/16 02:25:55;;;;;;;15.93;15.33;;;;;;;-141.02;100.00;41467.44;5112918;28;20651;-79
2023/12/16 02:28:22;;;;;;;15.03;14.50;;;;;;;-141.02;100.00;41471.28;5113271;28;20200;-79
2023/12/16 02:30:49;;;;;;;15.27;14.67;;;;;;;-141.02;100.00;41377.25;5113096;28;20224;-78
2023/12/16 02:33:17;;;;;;;15.80;15.20;;;;;;;-141.02;100.00;41350.38;5112768;28;20197;-79
2023/12/16 02:35:44;;;;;;;16.77;16.07;;;;;;;-141.02;100.00;41258.28;5113101;28;20650;-79
2023/12/16 02:38:11;;;;;;;16.97;16.17;;;;;;;-141.02;100.00;41150.81;5112722;28;20203;-80
2023/12/16 02:40:42;;;;;;;17.13;16.33;;;;;;;-141.02;100.00;41097.09;5112432;28;20193;-80
2023/12/16 02:43:09;;;;;;;16.27;15.57;;;;;;;-141.02;100.00;41175.75;5112584;28;20720;-80
2023/12/16 02:45:36;;;;;;;16.10;15.30;;;;;;;-141.02;100.00;41154.66;5112625;28;20211;-79
2023/12/16 02:48:03;;;;;;;17.80;16.90;;;;;;;-141.02;100.00;41018.44;5112587;28;20204;-80
2023/12/16 02:50:30;;;;;;;16.80;16.00;;;;;;;-141.02;100.00;41035.69;5112920;28;20254;-77
2023/12/16 02:52:57;;;;;;;16.67;15.77;;;;;;;-141.02;100.00;40947.44;5112747;28;20276;-79
2023/12/16 02:55:24;;;;;;;15.17;14.40;;;;;;;-141.02;100.00;41006.91;5112251;28;20754;-80
2023/12/16 02:57:52;;;;;;;17.27;16.37;;;;;;;-141.02;100.00;41006.91;5112843;28;20280;-80
2023/12/16 03:00:19;;;;;;;16.37;15.50;;;;;;;-141.02;100.00;40955.09;5112402;28;20203;-80
2023/12/16 03:02:47;;;;;;;17.20;16.30;;;;;;;-141.02;100.00;40882.19;5112706;28;20228;-79
2023/12/16 03:05:14;;;;;;;15.90;15.00;;;;;;;-141.02;100.00;40897.56;5112355;28;20199;-80
2023/12/16 03:07:41;;;;;;;15.77;14.97;;;;;;;-141.02;100.00;40972.38;5112393;28;20197;-79
2023/12/16 03:10:08;;;;;;;15.93;15.03;;;;;;;-141.02;100.00;40930.16;5112383;28;20208;-80
2023/12/16 03:12:35;;;;;;;16.30;15.40;;;;;;;-141.02;100.00;40889.88;5112325;28;20250;-79
2023/12/16 03:15:04;;;;;;;16.43;15.53;;;;;;;-141.02;100.00;40859.19;5112638;28;20189;-81
2023/12/16 03:17:31;;;;;;;17.53;16.53;;;;;;;-141.02;100.00;40755.56;5112216;28;20284;-81
2023/12/16 03:19:59;;;;;;;17.57;16.57;;;;;;;-141.02;100.00;40778.59;5112290;28;20650;-80
2023/12/16 03:22:26;;;;;;;17.63;16.73;;;;;;;-141.02;100.00;40757.50;5112393;28;20225;-79
2023/12/16 03:24:53;;;;;;;17.20;16.30;;;;;;;-141.02;100.00;40755.56;5112529;28;20220;-81
2023/12/16 03:27:19;;;;;;;17.57;16.67;;;;;;;-141.02;100.00;40688.44;5112167;28;20195;-81
2023/12/16 03:29:46;;;;;;;17.40;16.40;;;;;;;-141.02;100.00;40678.84;5112139;28;20203;-81
2023/12/16 03:32:15;;;;;;;19.83;18.63;;;;;;;-141.02;100.00;40619.34;5112446;28;20197;-81
2023/12/16 03:34:42;;;;;;;17.07;16.17;;;;;;;-141.02;100.00;40701.84;5112107;28;20276;-81
2023/12/16 03:37:08;;;;;;;17.93;16.83;;;;;;;-141.02;100.00;40575.22;5112313;28;20698;-81
2023/12/16 03:39:36;;;;;;;18.40;17.30;;;;;;;-141.02;100.00;40544.53;5112367;28;20197;-81
2023/12/16 03:42:03;;;;;;;17.50;16.50;;;;;;;-141.02;100.00;40579.06;5111958;28;20224;-83
2023/12/16 03:44:30;;;;;;;17.13;16.23;;;;;;;-141.02;100.00;40588.66;5112053;28;20232;-82
2023/12/16 03:46:57;;;;;;;18.33;17.23;;;;;;;-141.02;100.00;40559.88;5112280;28;20199;-82
2023/12/16 03:49:25;;;;;;;18.03;17.03;;;;;;;-141.02;100.00;40571.41;5112004;28;20189;-82
2023/12/16 03:51:55;;;;;;;18.63;17.53;;;;;;;-141.02;100.00;40525.34;5115838;28;20200;-82
2023/12/16 03:54:23;;;;;;;18.60;17.40;;;;;;;-141.02;100.00;40473.56;5115951;28;20671;-80
2023/12/16 03:56:50;;;;;;;16.47;15.57;;;;;;;-141.02;100.00;40486.97;5115791;28;20229;-81
2023/12/16 03:59:16;;;;;;;17.87;16.80;;;;;;;-141.02;100.00;40479.31;5116039;28;20588;-81
2023/12/16 04:01:45;;;;;;;16.20;15.30;;;;;;;-141.02;100.00;40521.50;5116439;28;20193;-76
2023/12/16 04:04:12;;;;;;;16.63;15.63;;;;;;;-141.02;100.00;40475.47;5115602;28;20197;-81
2023/12/16 04:06:40;;;;;;;16.60;15.63;;;;;;;-141.02;100.00;40486.97;5115926;28;20211;-80
2023/12/16 04:09:08;;;;;;;17.33;16.30;;;;;;;-141.02;100.00;40490.81;5115608;28;20684;-81
2023/12/16 04:11:36;;;;;;;16.30;15.30;;;;;;;-141.02;100.00;40456.28;5115518;28;20660;-81
2023/12/16 04:14:02;;;;;;;16.67;15.67;;;;;;;-141.02;100.00;40473.56;5115845;28;20201;-81
2023/12/16 04:16:29;;;;;;;18.43;17.43;;;;;;;-141.02;100.00;40490.81;5115735;28;20189;-81
2023/12/16 04:18:56;;;;;;;21.17;19.90;;;;;;;-141.02;100.00;40440.94;5115689;28;20200;-81
2023/12/16 04:21:23;;;;;;;17.40;16.40;;;;;;;-141.02;100.00;40440.94;5115608;28;20200;-81
2023/12/16 04:23:51;;;;;;;16.20;15.30;;;;;;;-141.02;100.00;40465.88;5115586;28;20256;-81
2023/12/16 04:26:18;;;;;;;16.17;15.27;;;;;;;-141.02;100.00;40556.03;5115565;28;20189;-81
2023/12/16 04:28:45;;;;;;;16.17;15.30;;;;;;;-141.02;100.00;40538.78;5115733;28;20200;-81
2023/12/16 04:31:16;;;;;;;17.80;16.80;;;;;;;-141.02;100.00;40554.13;5115147;28;20207;-81
2023/12/16 04:33:43;;;;;;;15.50;14.77;;;;;;;-141.02;100.00;40540.69;5115105;28;20189;-82
2023/12/16 04:36:14;;;;;;;15.90;15.10;;;;;;;-141.02;100.00;40567.56;5115513;28;20193;-82
2023/12/16 04:38:41;;;;;;;16.17;15.27;;;;;;;-141.02;100.00;40529.19;5115135;28;20189;-81
2023/12/16 04:41:11;;;;;;;15.60;14.80;;;;;;;-141.02;100.00;40613.59;5115213;28;20205;-82
2023/12/16 04:43:38;;;;;;;15.67;14.90;;;;;;;-141.02;100.00;40590.59;5114867;28;20304;-82
2023/12/16 04:46:05;;;;;;;16.00;15.10;;;;;;;-141.02;100.00;40525.34;5114914;28;20240;-82
2023/12/16 04:48:32;;;;;;;15.60;14.80;;;;;;;-141.02;100.00;40510.00;5114836;28;20204;-82
2023/12/16 04:51:05;;;;;;;15.20;14.50;;;;;;;-141.02;100.00;40673.06;5115114;28;20231;-80
2023/12/16 04:53:32;;;;;;;15.80;14.90;;;;;;;-141.02;100.00;40510.00;5115001;28;20690;-82
2023/12/16 04:55:59;;;;;;;15.30;14.50;;;;;;;-141.02;100.00;40604.00;5114497;28;20225;-81
2023/12/16 04:58:29;;;;;;;15.00;14.30;;;;;;;-141.02;100.00;40584.81;5114966;28;20189;-82
2023/12/16 05:00:56;;;;;;;15.43;14.63;;;;;;;-141.02;100.00;40594.41;5114596;28;20292;-81
2023/12/16 05:03:24;;;;;;;14.07;13.37;;;;;;;-141.02;100.00;40651.97;5113817;27;20711;-81
2023/12/16 05:05:51;;;;;;;14.20;13.50;;;;;;;-141.02;100.00;40701.84;5114823;28;20192;-82
2023/12/16 05:08:19;;;;;;;14.50;13.70;;;;;;;-141.02;100.00;40623.19;5114339;28;20207;-81
2023/12/16 05:10:47;;;;;;;14.33;13.63;;;;;;;-141.02;100.00;40686.50;5114334;28;20651;-81
2023/12/16 05:13:14;;;;;;;14.30;13.60;;;;;;;-141.02;100.00;40675.00;5114684;28;20189;-82
2023/12/16 05:15:43;;;;;;;14.53;13.83;;;;;;;-141.02;100.00;40690.34;5114480;28;20193;-81
2023/12/16 05:18:10;;;;;;;14.83;14.13;;;;;;;-141.02;100.00;40736.38;5114607;28;20223;-81
2023/12/16 05:20:38;;;;;;;15.33;14.63;;;;;;;-141.02;100.00;40740.22;5114125;28;20554;-81
2023/12/16 05:23:05;;;;;;;15.00;14.30;;;;;;;-141.02;100.00;40713.38;5114094;28;20703;-81
2023/12/16 05:25:32;;;;;;;14.50;13.80;;;;;;;-141.02;100.00;40734.47;5114064;28;20196;-81
2023/12/16 05:27:59;;;;;;;14.67;13.97;;;;;;;-141.02;100.00;40751.72;5114018;28;20637;-80
2023/12/16 05:30:26;;;;;;;14.67;13.97;;;;;;;-141.02;100.00;40721.03;5114384;28;20204;-81
2023/12/16 05:32:54;;;;;;;15.07;14.37;;;;;;;-141.02;100.00;40707.59;5112741;28;20193;-81
2023/12/16 05:35:21;;;;;;;15.27;14.47;;;;;;;-141.02;100.00;40772.84;5113886;28;20543;-80
2023/12/16 05:37:48;;;;;;;14.00;13.40;;;;;;;-141.02;100.00;40763.25;5113825;28;20200;-80
2023/12/16 05:40:15;;;;;;;14.00;13.30;;;;;;;-141.02;100.00;40734.47;5114173;28;20189;-80
2023/12/16 05:42:43;;;;;;;14.80;14.10;;;;;;;-141.02;100.00;40742.16;5113636;28;20231;-80
2023/12/16 05:45:10;;;;;;;15.83;15.03;;;;;;;-141.02;100.00;40744.06;5113811;28;20197;-79
2023/12/16 05:47:37;;;;;;;16.30;15.50;;;;;;;-141.02;100.00;40682.66;5113648;28;20288;-79
2023/12/16 05:50:08;;;;;;;15.80;15.10;;;;;;;-141.02;100.00;40742.16;5113868;28;20193;-79
2023/12/16 05:52:36;;;;;;;14.70;14.00;;;;;;;-141.02;100.00;40816.97;5113825;28;20189;-79
2023/12/16 05:55:04;;;;;;;14.20;13.60;;;;;;;-141.02;100.00;40813.13;5113811;28;20189;-79
2023/12/16 05:57:31;;;;;;;14.57;13.77;;;;;;;-141.02;100.00;40782.44;5113593;28;20402;-78
2023/12/16 05:59:58;;;;;;;14.20;13.50;;;;;;;-141.02;100.00;40790.09;5113458;28;20654;-78
2023/12/16 06:02:25;;;;;;;14.20;13.60;;;;;;;-141.02;100.00;40932.09;5113394;28;20542;-78
2023/12/16 06:04:52;;;;;;;14.67;13.97;;;;;;;-141.02;100.00;41258.28;5113648;28;20272;-78
2023/12/16 06:07:20;;;;;;;13.77;13.17;;;;;;;-141.02;100.00;41361.91;5113283;28;20200;-78
2023/12/16 06:09:47;;;;;;;14.83;14.23;;;;;;;-141.02;100.00;41390.69;5113311;28;20734;-77
2023/12/16 06:12:14;;;;;;;14.67;14.07;;;;;;;-141.02;100.00;41500.06;5113485;28;20232;-77
2023/12/16 06:14:41;;;;;;;14.40;13.70;;;;;;;-141.02;100.00;41500.06;5112275;28;20193;-77
2023/12/16 06:17:08;;;;;;;14.60;13.90;;;;;;;-141.02;100.00;41567.22;5113141;28;20201;-77
2023/12/16 06:19:35;;;;;;;14.30;13.70;;;;;;;-141.02;100.00;41642.06;5113016;28;20197;-76
2023/12/16 06:22:02;;;;;;;14.40;13.70;;;;;;;-141.02;100.00;41693.88;5113095;28;20193;-77
2023/12/16 06:24:34;;;;;;;13.93;13.33;;;;;;;-141.02;100.00;41830.13;5113163;28;20243;-76
2023/12/16 06:27:01;;;;;;;15.47;14.77;;;;;;;-141.02;100.00;42020.16;5112962;28;20565;-76
2023/12/16 06:29:27;;;;;;;14.60;13.90;;;;;;;-141.02;100.00;42033.56;5112877;28;20659;-76
2023/12/16 06:31:54;;;;;;;14.00;13.33;;;;;;;-141.02;100.00;42121.88;5113205;28;20250;-75
2023/12/16 06:34:21;;;;;;;14.10;13.40;;;;;;;-141.02;100.00;42217.84;5113152;28;20203;-75
2023/12/16 06:36:48;;;;;;;14.10;13.40;;;;;;;-141.02;100.00;42166.00;5112751;28;20190;-77
2023/12/16 06:39:15;;;;;;;14.57;13.77;;;;;;;-141.02;100.00;42098.84;5113173;28;20189;-76
2023/12/16 06:41:44;;;;;;;14.40;13.70;;;;;;;-141.02;100.00;42160.25;5112639;28;20189;-76
2023/12/16 06:44:11;;;;;;;14.60;13.80;;;;;;;-141.02;100.00;42154.50;5113207;28;20231;-78
2023/12/16 06:46:38;;;;;;;15.63;14.83;;;;;;;-141.02;100.00;42252.38;5113266;28;20193;-76
2023/12/16 06:49:05;;;;;;;16.57;15.73;;;;;;;-141.02;100.00;42261.97;5112939;28;20228;-75
2023/12/16 06:51:32;;;;;;;14.17;13.47;;;;;;;-141.02;100.00;42367.56;5112594;28;20229;-75
2023/12/16 06:53:58;;;;;;;14.17;13.47;;;;;;;-141.02;100.00;42455.84;5112443;28;20613;-75
2023/12/16 06:56:25;;;;;;;14.50;13.70;;;;;;;-141.02;100.00;42494.25;5112620;28;20312;-76
2023/12/16 06:58:54;;;;;;;14.20;13.50;;;;;;;-141.02;100.00;42475.03;5112447;28;20275;-79
2023/12/16 07:01:23;;;;;;;14.63;13.83;;;;;;;-141.02;100.00;42407.84;5112391;28;20288;-76
2023/12/16 07:03:50;;;;;;;15.00;14.20;;;;;;;-141.02;100.00;42461.59;5112769;28;20225;-77
2023/12/16 07:06:20;;;;;;;14.70;14.00;;;;;;;-141.02;100.00;42482.72;5112778;28;20276;-75
2023/12/16 07:08:47;;;;;;;14.40;13.70;;;;;;;-141.02;100.00;42523.03;5112386;28;20197;-76
2023/12/16 07:11:14;;;;;;;15.10;14.30;;;;;;;-141.02;100.00;42507.69;5112618;28;20276;-76
2023/12/16 07:13:42;;;;;;;15.23;14.43;;;;;;;-141.02;100.00;42452.00;5112623;28;20201;-75
2023/12/16 07:16:14;;;;;;;14.53;13.83;;;;;;;-141.02;100.00;42536.47;5112562;28;20197;-77
2023/12/16 07:18:42;;;;;;;14.57;13.87;;;;;;;-141.02;100.00;42620.94;5112334;28;20271;-75
2023/12/16 07:21:09;;;;;;;14.60;13.90;;;;;;;-141.02;100.00;42709.25;5112215;28;20617;-76
2023/12/16 07:23:36;;;;;;;14.07;13.47;;;;;;;-141.02;100.00;42954.97;5112090;28;20222;-76
2023/12/16 07:26:03;;;;;;;14.60;13.90;;;;;;;-141.02;100.00;42987.59;5115433;28;20275;-76
2023/12/16 07:28:30;;;;;;;14.23;13.63;;;;;;;-141.02;100.00;43120.06;5116271;28;20192;-78
2023/12/16 07:30:57;;;;;;;14.10;13.50;;;;;;;-141.02;100.00;43004.88;5116555;28;20621;-78
2023/12/16 07:33:25;;;;;;;14.23;13.53;;;;;;;-141.02;100.00;42962.66;5116233;28;20197;-78
2023/12/16 07:35:52;;;;;;;14.87;14.17;;;;;;;-141.02;100.00;42855.13;5116190;28;20682;-77
2023/12/16 07:38:19;;;;;;;14.73;14.03;;;;;;;-141.02;100.00;42805.22;5116244;28;20197;-76
2023/12/16 07:40:46;;;;;;;15.10;14.30;;;;;;;-141.02;100.00;42755.31;5116400;28;20579;-76
2023/12/16 07:43:13;;;;;;;14.70;14.00;;;;;;;-141.02;100.00;42770.66;5116147;28;20221;-76
2023/12/16 07:45:40;;;;;;;14.70;14.00;;;;;;;-141.02;100.00;42682.34;5116271;28;20209;-77
2023/12/16 07:48:07;;;;;;;15.03;14.23;;;;;;;-141.02;100.00;42657.41;5116279;28;20196;-76
2023/12/16 07:50:35;;;;;;;15.30;14.50;;;;;;;-141.02;100.00;42655.47;5116298;28;20199;-77
2023/12/16 07:53:03;;;;;;;15.13;14.33;;;;;;;-141.02;100.00;42736.13;5116199;28;20201;-77
2023/12/16 07:55:30;;;;;;;16.10;15.20;;;;;;;-141.02;100.00;42707.31;5116027;28;20200;-77
2023/12/16 07:57:56;;;;;;;15.90;15.00;;;;;;;-141.02;100.00;42701.56;5116185;28;20192;-78
2023/12/16 08:00:24;;;;;;;15.37;14.47;;;;;;;-141.02;100.00;42874.34;5116417;28;20189;-78
2023/12/16 08:02:51;;;;;;;15.73;14.83;;;;;;;-141.02;100.00;42920.41;5115711;28;20199;-77
2023/12/16 08:05:18;;;;;;;15.87;14.97;;;;;;;-141.02;100.00;43039.44;5115647;28;20227;-78
2023/12/16 08:07:46;;;;;;;15.40;14.50;;;;;;;-141.02;100.00;43179.59;5115679;28;20677;-78
2023/12/16 08:10:14;;;;;;;15.77;14.87;;;;;;;-141.02;100.00;43166.16;5115556;28;20193;-79
2023/12/16 08:12:41;;;;;;;15.90;15.00;;;;;;;-141.02;100.00;43164.22;5115860;28;20205;-79
2023/12/16 08:15:09;;;;;;;15.57;14.67;;;;;;;-141.02;100.00;43381.19;5115502;28;20726;-80
2023/12/16 08:17:37;;;;;;;16.50;15.60;;;;;;;-141.02;100.00;43292.88;5115719;28;20193;-80
2023/12/16 08:20:05;;;;;;;17.23;16.23;;;;;;;-141.02;100.00;43083.59;5115393;28;20224;-81
2023/12/16 08:22:32;;;;;;;16.30;15.40;;;;;;;-141.02;100.00;43227.59;5115337;28;20240;-82
2023/12/16 08:25:01;;;;;;;16.73;15.73;;;;;;;-141.02;100.00;43143.09;5115274;28;20600;-82
2023/12/16 08:27:28;;;;;;;15.67;14.77;;;;;;;-141.02;100.00;43248.72;5115491;28;20193;-84
2023/12/16 08:29:55;;;;;;;17.00;15.90;;;;;;;-141.02;100.00;43164.22;5115212;28;20560;-85
2023/12/16 08:32:22;;;;;;;15.97;15.07;;;;;;;-141.02;100.00;43196.88;5115544;28;20189;-86
2023/12/16 08:34:49;;;;;;;14.90;14.10;;;;;;;-141.02;100.00;43561.69;5115274;28;20189;-89
2023/12/16 08:37:16;;;;;;;15.83;14.93;;;;;;;-141.02;100.00;43246.78;5114439;28;20193;-91
2023/12/16 08:39:43;;;;;;;15.70;14.80;;;;;;;-141.02;100.00;43031.75;5115180;28;20236;-87
2023/12/16 08:42:11;;;;;;;15.63;14.73;;;;;;;-141.02;100.00;43354.31;5115997;28;20193;-93
2023/12/16 08:44:38;;;;;;;14.80;14.00;;;;;;;-141.02;100.00;43607.75;5116334;28;20232;-94
2023/12/16 08:47:09;;;;;;;15.73;14.83;;;;;;;-141.02;100.00;43613.53;5128793;28;20211;-92
2023/12/16 08:49:38;;;;;;;15.90;15.00;;;;;;;-141.02;100.00;43554.00;5136340;28;20193;-91
2023/12/16 08:52:06;;;;;;;16.40;15.40;;;;;;;-141.02;100.00;43333.19;5132533;28;20199;-90
2023/12/16 08:54:33;;;;;;;16.00;15.00;;;;;;;-141.02;100.00;43734.50;5116982;28;20259;-89
2023/12/16 08:57:01;;;;;;;16.30;15.30;;;;;;;-141.02;100.00;43734.50;5115060;28;20231;-87
2023/12/16 08:59:29;;;;;;;16.40;15.40;;;;;;;-141.02;100.00;43926.53;5115179;28;20254;-87
2023/12/16 09:01:56;;;;;;;17.77;16.57;;;;;;;-141.02;100.00;43707.63;5114654;28;20190;-85
2023/12/16 09:04:23;;;;;;;17.10;16.00;;;;;;;-141.02;100.00;43868.91;5114477;28;20751;-85
2023/12/16 09:06:50;;;;;;;18.20;17.00;;;;;;;-141.02;100.00;43515.59;5114794;28;20228;-84
2023/12/16 09:09:17;;;;;;;16.60;15.50;;;;;;;-141.02;100.00;43822.84;5114742;28;20197;-83
2023/12/16 09:11:45;;;;;;;17.30;16.10;;;;;;;-141.02;100.00;43753.69;5114706;28;20193;-83
2023/12/16 09:14:12;;;;;;;17.50;16.30;;;;;;;-141.02;100.00;43667.28;5114344;28;20193;-82
2023/12/16 09:16:40;;;;;;;17.73;16.53;;;;;;;-141.02;100.00;43757.53;5114920;28;20194;-82
2023/12/16 09:19:08;;;;;;;17.50;16.30;;;;;;;-141.02;100.00;43578.97;5114221;28;20645;-81
2023/12/16 09:21:35;;;;;;;18.37;17.13;;;;;;;-141.02;100.00;43502.16;5114568;28;20196;-81
2023/12/16 09:24:02;;;;;;;19.73;18.43;;;;;;;-141.02;100.00;43642.31;5114127;28;20317;-80
2023/12/16 09:26:29;;;;;;;18.50;17.30;;;;;;;-141.02;100.00;43784.44;5114052;28;20201;-80
2023/12/16 09:28:56;;;;;;;18.80;17.60;;;;;;;-141.02;100.00;43970.69;5114057;28;20197;-80
2023/12/16 09:31:23;;;;;;;18.93;17.63;;;;;;;-141.02;100.00;43891.97;5114086;28;20204;-79
2023/12/16 09:33:51;;;;;;;19.43;17.93;;;;;;;-141.02;100.00;43442.63;5114250;28;20199;-79
2023/12/16 09:36:18;;;;;;;19.17;17.77;;;;;;;-141.02;100.00;43640.41;5113995;28;20193;-79
2023/12/16 09:38:45;;;;;;;17.63;16.43;;;;;;;-141.02;100.00;44114.72;5114072;28;20193;-80
2023/12/16 09:41:21;;;;;;;17.70;16.50;;;;;;;-141.02;100.00;44289.50;5114034;28;20655;-79
2023/12/16 09:43:51;;;;;;;19.27;17.87;;;;;;;-141.02;100.00;44208.84;5113934;28;20209;-79
2023/12/16 09:46:20;;;;;;;21.10;19.50;;;;;;;-141.02;100.00;43776.75;5113744;28;20190;-79
2023/12/16 09:48:47;;;;;;;19.13;17.77;;;;;;;-141.02;100.00;44041.75;5113691;28;20203;-79
2023/12/16 09:51:15;;;;;;;21.00;19.40;;;;;;;-141.02;100.00;43534.78;5113701;28;20284;-80
2023/12/16 09:53:42;;;;;;;18.53;17.23;;;;;;;-141.02;100.00;44105.13;5113802;28;20639;-79
2023/12/16 09:56:12;;;;;;;20.93;19.33;;;;;;;-141.02;100.00;43573.19;5113517;28;20235;-79
2023/12/16 09:58:43;;;;;;;18.73;17.23;;;;;;;-141.02;100.00;43819.00;5113545;28;20189;-79
2023/12/16 10:01:11;;;;;;;20.47;18.87;;;;;;;-141.02;100.00;43684.56;5113761;28;20197;-79
2023/12/16 10:03:38;;;;;;;21.97;20.17;;;;;;;-141.02;100.00;43525.19;5113326;28;20197;-80
2023/12/16 10:06:08;;;;;;;23.23;21.43;;;;;;;-141.02;100.00;43458.00;5113362;28;20651;-79
2023/12/16 10:08:38;;;;;;;22.17;20.43;;;;;;;-141.02;100.00;43459.91;5113920;28;20195;-79
2023/12/16 10:11:06;;;;;;;21.37;19.77;;;;;;;-141.02;100.00;43657.69;5113609;28;20197;-78
2023/12/16 10:13:34;;;;;;;22.83;21.03;;;;;;;-141.02;100.00;43290.94;5113578;28;20203;-78
2023/12/16 10:16:01;;;;;;;20.90;19.30;;;;;;;-141.02;100.00;43346.63;5113278;28;20219;-79
2023/12/16 10:18:28;;;;;;;22.70;21.00;;;;;;;-141.02;100.00;43331.28;5113383;28;20253;-78
2023/12/16 10:20:56;;;;;;;21.90;20.10;;;;;;;-141.02;100.00;43290.94;5113436;28;20568;-79
2023/12/16 10:23:23;;;;;;;22.47;20.57;;;;;;;-141.02;100.00;43135.44;5113225;28;20739;-78
2023/12/16 10:25:52;;;;;;;21.13;19.43;;;;;;;-141.02;100.00;43145.03;5113189;28;20274;-78
2023/12/16 10:28:19;;;;;;;21.13;19.43;;;;;;;-141.02;100.00;43074.00;5113497;28;20560;-78
2023/12/16 10:30:47;;;;;;;22.50;20.77;;;;;;;-141.02;100.00;43158.47;5112814;28;20246;-79
2023/12/16 10:33:14;;;;;;;20.77;19.17;;;;;;;-141.02;100.00;43047.13;5113182;28;20276;-79
2023/12/16 10:35:42;;;;;;;20.13;18.63;;;;;;;-141.02;100.00;43066.31;5112777;28;20750;-80
2023/12/16 10:38:11;;;;;;;22.53;20.83;;;;;;;-141.02;100.00;42993.34;5112811;28;20193;-80
2023/12/16 10:40:38;;;;;;;21.70;20.10;;;;;;;-141.02;100.00;42993.34;5112986;28;20197;-79
2023/12/16 10:43:08;;;;;;;22.67;20.97;;;;;;;-141.02;100.00;42958.81;5112724;28;20196;-79
2023/12/16 10:45:35;;;;;;;21.07;19.47;;;;;;;-141.02;100.00;42974.16;5112905;28;20239;-80
2023/12/16 10:48:05;;;;;;;20.20;18.70;;;;;;;-141.02;100.00;43125.84;5112637;28;20254;-80
2023/12/16 10:50:33;;;;;;;19.10;17.70;;;;;;;-141.02;100.00;43143.09;5112566;28;20298;-80
2023/12/16 10:53:03;;;;;;;19.07;17.67;;;;;;;-141.02;100.00;43216.06;5113173;28;20276;-81
2023/12/16 10:55:35;;;;;;;20.87;19.27;;;;;;;-141.02;100.00;43060.56;5112486;28;20666;-80